Hauptseite
METAR-TAF:

METAR-TAF

Flughäfen :

Aeroporto Internacional Quatro de Fevereiro

Luanda, Angola

Breite: 08-51S, Länge: 013-14E, Höhe: 74 m

Beobachtung

Neuester Wetterbericht von vor 1 Stunde und 27 Minuten, um 20:00 UTC
Wind 4 kt aus Süd/Südwest
Temperatur 27°C
Luftdruck 1010 hPa
Sichtweite 10 km oder mehr
Leicht bewölkt in der Höhe von 2100 ft

METAR: FNLU 132000Z 21004KT 9999 FEW021 27/// Q1010 NOSIG

Zeit: 22:27 (21:27 UTC)

Prognose

Neuester Wetterbericht von vor 4 Stunden und 27 Minuten, um 17:00 UTC
Gültige Prognose vom 13 um 18 UTC bis 14 um 24 UTC
Wind 6 kt aus Süd/Südost
Sichtweite: 7000 m
Leicht bewölkt in der Höhe von 1600 ft, Kumulonimbus.
Durchbrochene Bewölkung in der Höhe von 2000 ft
Wahrscheinlichkeit 30% :
Zeitweise
vom 14 um 02 UTC bis 14 um 06 UTC
Gewitter, Sprühregen,

TAF: FNLU 131700Z 1318/1424 15006KT 7000 FEW016CB BKN020 PROB30 TEMPO 1402/1406 TS DZ

Wetterbeobachtungen und Prognosen von mehr als 4000 Flughäfen (METAR und TAF Bericht).

Die verfügbaren Stationen werden durch gelbe und rote Markierungen auf der Karte dargestellt.

Führen Sie die Maus auf sie, um den Namen der Station zu sehen.

Darauf klicken, um die Beobachtung von Wetterbeobachtungen und Prognosen zu sehen.

Um die Karte zu ändern : klicken Sie auf den grünen Tasten mit einem schwarzen Kreuz Zum Vergrößern, auf den grünen Button mit einem Gedankenstrich zu verkleinern, oder auf die grünen Pfeile für benachbarte Karten.


METAR-TAF: